sensor_id;sensor_type;location;lat;lon;timestamp;temperature;humidity
4431;DHT22;2228;48.140;11.488;2023-07-24T00:00:18;19.30;1.00
4431;DHT22;2228;48.140;11.488;2023-07-24T00:02:45;19.30;1.00
4431;DHT22;2228;48.140;11.488;2023-07-24T00:05:12;19.40;1.00
4431;DHT22;2228;48.140;11.488;2023-07-24T00:07:39;19.20;1.00
4431;DHT22;2228;48.140;11.488;2023-07-24T00:10:06;19.10;1.00
4431;DHT22;2228;48.140;11.488;2023-07-24T00:12:35;19.10;1.00
4431;DHT22;2228;48.140;11.488;2023-07-24T00:15:02;19.10;1.00
4431;DHT22;2228;48.140;11.488;2023-07-24T00:17:29;19.00;1.00
4431;DHT22;2228;48.140;11.488;2023-07-24T00:19:56;19.00;1.00
4431;DHT22;2228;48.140;11.488;2023-07-24T00:22:23;19.00;1.00
4431;DHT22;2228;48.140;11.488;2023-07-24T00:24:49;18.90;1.00
4431;DHT22;2228;48.140;11.488;2023-07-24T00:27:16;18.90;1.00
4431;DHT22;2228;48.140;11.488;2023-07-24T00:29:45;19.60;1.00
4431;DHT22;2228;48.140;11.488;2023-07-24T00:32:12;18.90;1.00
4431;DHT22;2228;48.140;11.488;2023-07-24T00:34:38;18.80;1.00
4431;DHT22;2228;48.140;11.488;2023-07-24T00:37:05;18.80;1.00
4431;DHT22;2228;48.140;11.488;2023-07-24T00:39:32;18.70;1.00
4431;DHT22;2228;48.140;11.488;2023-07-24T00:41:59;18.90;1.00
4431;DHT22;2228;48.140;11.488;2023-07-24T00:44:26;18.70;1.00
4431;DHT22;2228;48.140;11.488;2023-07-24T00:46:54;18.50;1.00
4431;DHT22;2228;48.140;11.488;2023-07-24T00:49:21;18.40;1.00
4431;DHT22;2228;48.140;11.488;2023-07-24T00:51:48;18.30;1.00
4431;DHT22;2228;48.140;11.488;2023-07-24T00:54:16;18.30;1.00
4431;DHT22;2228;48.140;11.488;2023-07-24T00:56:45;18.20;1.00
4431;DHT22;2228;48.140;11.488;2023-07-24T00:59:12;18.10;1.00
4431;DHT22;2228;48.140;11.488;2023-07-24T01:01:40;18.10;1.00
4431;DHT22;2228;48.140;11.488;2023-07-24T01:04:09;18.10;1.00
4431;DHT22;2228;48.140;11.488;2023-07-24T01:06:36;18.00;1.00
4431;DHT22;2228;48.140;11.488;2023-07-24T01:09:03;18.10;1.00
4431;DHT22;2228;48.140;11.488;2023-07-24T01:11:35;18.10;1.00
4431;DHT22;2228;48.140;11.488;2023-07-24T01:14:09;18.50;1.00
4431;DHT22;2228;48.140;11.488;2023-07-24T01:16:41;18.10;1.00
4431;DHT22;2228;48.140;11.488;2023-07-24T01:19:12;18.00;1.00
4431;DHT22;2228;48.140;11.488;2023-07-24T01:21:49;18.00;1.00
4431;DHT22;2228;48.140;11.488;2023-07-24T01:24:24;18.10;1.00
4431;DHT22;2228;48.140;11.488;2023-07-24T01:26:55;18.00;1.00
4431;DHT22;2228;48.140;11.488;2023-07-24T01:29:22;18.60;1.00
4431;DHT22;2228;48.140;11.488;2023-07-24T01:31:49;18.10;1.00
4431;DHT22;2228;48.140;11.488;2023-07-24T01:34:15;18.20;1.00
4431;DHT22;2228;48.140;11.488;2023-07-24T01:36:43;18.20;1.00
4431;DHT22;2228;48.140;11.488;2023-07-24T01:39:10;18.20;1.00
4431;DHT22;2228;48.140;11.488;2023-07-24T01:41:37;18.40;1.00
4431;DHT22;2228;48.140;11.488;2023-07-24T01:44:06;18.30;1.00
4431;DHT22;2228;48.140;11.488;2023-07-24T01:46:33;17.70;1.00
4431;DHT22;2228;48.140;11.488;2023-07-24T01:49:00;18.30;1.00
4431;DHT22;2228;48.140;11.488;2023-07-24T01:51:27;18.30;1.00
4431;DHT22;2228;48.140;11.488;2023-07-24T01:53:54;18.30;1.00
4431;DHT22;2228;48.140;11.488;2023-07-24T01:56:21;18.60;1.00
4431;DHT22;2228;48.140;11.488;2023-07-24T01:58:48;18.60;1.00
4431;DHT22;2228;48.140;11.488;2023-07-24T02:01:16;18.60;1.00
4431;DHT22;2228;48.140;11.488;2023-07-24T02:03:43;18.80;1.00
4431;DHT22;2228;48.140;11.488;2023-07-24T02:06:10;18.70;1.00
4431;DHT22;2228;48.140;11.488;2023-07-24T02:08:37;18.70;1.00
4431;DHT22;2228;48.140;11.488;2023-07-24T02:11:04;18.60;1.00
4431;DHT22;2228;48.140;11.488;2023-07-24T02:13:31;18.60;1.00
4431;DHT22;2228;48.140;11.488;2023-07-24T02:15:57;18.70;1.00
4431;DHT22;2228;48.140;11.488;2023-07-24T02:18:26;18.80;1.00
4431;DHT22;2228;48.140;11.488;2023-07-24T02:20:52;18.80;1.00
4431;DHT22;2228;48.140;11.488;2023-07-24T02:23:19;18.70;1.00
4431;DHT22;2228;48.140;11.488;2023-07-24T02:25:50;18.70;1.00
4431;DHT22;2228;48.140;11.488;2023-07-24T02:28:17;18.90;1.00
4431;DHT22;2228;48.140;11.488;2023-07-24T02:30:46;19.00;1.00
4431;DHT22;2228;48.140;11.488;2023-07-24T02:33:13;18.80;1.00
4431;DHT22;2228;48.140;11.488;2023-07-24T02:35:42;18.70;1.00
4431;DHT22;2228;48.140;11.488;2023-07-24T02:38:09;18.70;1.00
4431;DHT22;2228;48.140;11.488;2023-07-24T02:40:36;18.80;1.00
4431;DHT22;2228;48.140;11.488;2023-07-24T02:43:03;18.90;1.00
4431;DHT22;2228;48.140;11.488;2023-07-24T02:45:30;18.90;1.00
4431;DHT22;2228;48.140;11.488;2023-07-24T02:47:56;19.00;1.00
4431;DHT22;2228;48.140;11.488;2023-07-24T02:50:23;19.30;1.00
4431;DHT22;2228;48.140;11.488;2023-07-24T02:53:12;19.20;1.00
4431;DHT22;2228;48.140;11.488;2023-07-24T02:55:42;19.40;1.00
4431;DHT22;2228;48.140;11.488;2023-07-24T02:58:10;19.30;1.00
4431;DHT22;2228;48.140;11.488;2023-07-24T03:00:37;19.30;1.00
4431;DHT22;2228;48.140;11.488;2023-07-24T03:03:04;19.40;1.00
4431;DHT22;2228;48.140;11.488;2023-07-24T03:05:33;19.20;1.00
4431;DHT22;2228;48.140;11.488;2023-07-24T03:08:02;19.00;1.00
4431;DHT22;2228;48.140;11.488;2023-07-24T03:10:29;18.50;1.00
4431;DHT22;2228;48.140;11.488;2023-07-24T03:12:56;18.10;99.90
4431;DHT22;2228;48.140;11.488;2023-07-24T03:15:23;17.60;99.90
4431;DHT22;2228;48.140;11.488;2023-07-24T03:17:50;17.50;99.90
4431;DHT22;2228;48.140;11.488;2023-07-24T03:20:18;17.30;1.00
4431;DHT22;2228;48.140;11.488;2023-07-24T03:22:45;17.40;1.00
4431;DHT22;2228;48.140;11.488;2023-07-24T03:25:13;17.40;1.00
4431;DHT22;2228;48.140;11.488;2023-07-24T03:27:41;17.40;6.40
4431;DHT22;2228;48.140;11.488;2023-07-24T03:30:08;18.00;26.20
4431;DHT22;2228;48.140;11.488;2023-07-24T03:32:36;17.50;2.80
4431;DHT22;2228;48.140;11.488;2023-07-24T03:35:04;17.70;1.00
4431;DHT22;2228;48.140;11.488;2023-07-24T03:37:31;17.70;1.00
4431;DHT22;2228;48.140;11.488;2023-07-24T03:39:58;18.00;1.00
4431;DHT22;2228;48.140;11.488;2023-07-24T03:42:27;17.90;1.00
4431;DHT22;2228;48.140;11.488;2023-07-24T03:44:55;17.80;1.00
4431;DHT22;2228;48.140;11.488;2023-07-24T03:47:22;17.70;1.00
4431;DHT22;2228;48.140;11.488;2023-07-24T03:49:49;17.70;4.70
4431;DHT22;2228;48.140;11.488;2023-07-24T03:52:17;17.50;1.00
4431;DHT22;2228;48.140;11.488;2023-07-24T03:54:44;17.50;48.20
4431;DHT22;2228;48.140;11.488;2023-07-24T03:57:13;17.60;92.80
4431;DHT22;2228;48.140;11.488;2023-07-24T03:59:41;17.60;70.00
4431;DHT22;2228;48.140;11.488;2023-07-24T04:02:09;17.60;55.40
4431;DHT22;2228;48.140;11.488;2023-07-24T04:04:36;17.60;90.90
4431;DHT22;2228;48.140;11.488;2023-07-24T04:07:03;17.70;99.90
4431;DHT22;2228;48.140;11.488;2023-07-24T04:09:30;17.80;99.90
4431;DHT22;2228;48.140;11.488;2023-07-24T04:11:57;17.90;99.90
4431;DHT22;2228;48.140;11.488;2023-07-24T04:14:28;18.00;97.90
4431;DHT22;2228;48.140;11.488;2023-07-24T04:16:57;18.00;97.40
4431;DHT22;2228;48.140;11.488;2023-07-24T04:19:24;18.10;14.90
4431;DHT22;2228;48.140;11.488;2023-07-24T04:21:52;17.80;99.90
4431;DHT22;2228;48.140;11.488;2023-07-24T04:24:19;17.80;99.90
4431;DHT22;2228;48.140;11.488;2023-07-24T04:26:46;18.30;99.90
4431;DHT22;2228;48.140;11.488;2023-07-24T04:29:14;17.80;99.90
4431;DHT22;2228;48.140;11.488;2023-07-24T04:31:41;17.70;99.90
4431;DHT22;2228;48.140;11.488;2023-07-24T04:34:10;17.60;99.90
4431;DHT22;2228;48.140;11.488;2023-07-24T04:36:37;17.80;99.90
4431;DHT22;2228;48.140;11.488;2023-07-24T04:39:04;17.80;99.90
4431;DHT22;2228;48.140;11.488;2023-07-24T04:41:31;17.80;99.90
4431;DHT22;2228;48.140;11.488;2023-07-24T04:43:59;18.10;99.90
4431;DHT22;2228;48.140;11.488;2023-07-24T04:46:27;18.00;99.90
4431;DHT22;2228;48.140;11.488;2023-07-24T04:48:54;17.90;99.90
4431;DHT22;2228;48.140;11.488;2023-07-24T04:51:22;18.00;99.90
4431;DHT22;2228;48.140;11.488;2023-07-24T04:53:49;18.10;99.90
4431;DHT22;2228;48.140;11.488;2023-07-24T04:56:16;18.20;99.90
4431;DHT22;2228;48.140;11.488;2023-07-24T04:58:43;18.20;88.70
4431;DHT22;2228;48.140;11.488;2023-07-24T05:01:10;18.30;1.00
4431;DHT22;2228;48.140;11.488;2023-07-24T05:03:38;18.30;1.00
4431;DHT22;2228;48.140;11.488;2023-07-24T05:06:04;18.30;99.90
4431;DHT22;2228;48.140;11.488;2023-07-24T05:08:33;18.30;5.50
4431;DHT22;2228;48.140;11.488;2023-07-24T05:11:01;18.50;85.20
4431;DHT22;2228;48.140;11.488;2023-07-24T05:13:27;18.60;1.90
4431;DHT22;2228;48.140;11.488;2023-07-24T05:15:54;18.70;74.70
4431;DHT22;2228;48.140;11.488;2023-07-24T05:18:21;18.80;22.00
4431;DHT22;2228;48.140;11.488;2023-07-24T05:20:49;18.70;1.00
4431;DHT22;2228;48.140;11.488;2023-07-24T05:23:16;18.70;1.00
4431;DHT22;2228;48.140;11.488;2023-07-24T05:25:45;18.70;1.00
4431;DHT22;2228;48.140;11.488;2023-07-24T05:28:12;18.70;1.00
4431;DHT22;2228;48.140;11.488;2023-07-24T05:30:39;18.80;1.00
4431;DHT22;2228;48.140;11.488;2023-07-24T05:33:06;18.70;1.00
4431;DHT22;2228;48.140;11.488;2023-07-24T05:35:33;18.80;1.00
4431;DHT22;2228;48.140;11.488;2023-07-24T05:38:00;18.70;1.00
4431;DHT22;2228;48.140;11.488;2023-07-24T05:40:28;18.90;1.00
4431;DHT22;2228;48.140;11.488;2023-07-24T05:42:56;19.00;1.00
4431;DHT22;2228;48.140;11.488;2023-07-24T05:45:23;19.20;1.00
4431;DHT22;2228;48.140;11.488;2023-07-24T05:47:50;19.30;1.00
4431;DHT22;2228;48.140;11.488;2023-07-24T05:50:17;19.50;1.00
4431;DHT22;2228;48.140;11.488;2023-07-24T05:52:48;19.60;1.00
4431;DHT22;2228;48.140;11.488;2023-07-24T05:55:15;19.80;99.90
4431;DHT22;2228;48.140;11.488;2023-07-24T05:57:42;20.10;1.00
4431;DHT22;2228;48.140;11.488;2023-07-24T06:00:12;20.50;1.00
4431;DHT22;2228;48.140;11.488;2023-07-24T06:02:39;20.80;1.00
4431;DHT22;2228;48.140;11.488;2023-07-24T06:05:06;21.20;99.90
4431;DHT22;2228;48.140;11.488;2023-07-24T06:07:34;21.50;99.90
4431;DHT22;2228;48.140;11.488;2023-07-24T06:10:01;22.10;99.90
4431;DHT22;2228;48.140;11.488;2023-07-24T06:12:28;22.70;99.90
4431;DHT22;2228;48.140;11.488;2023-07-24T06:14:55;23.10;1.00
4431;DHT22;2228;48.140;11.488;2023-07-24T06:17:36;23.40;1.00
4431;DHT22;2228;48.140;11.488;2023-07-24T06:20:06;23.10;1.00
4431;DHT22;2228;48.140;11.488;2023-07-24T06:22:34;23.10;1.00
4431;DHT22;2228;48.140;11.488;2023-07-24T06:25:02;23.00;1.00
4431;DHT22;2228;48.140;11.488;2023-07-24T06:27:32;23.00;2.10
4431;DHT22;2228;48.140;11.488;2023-07-24T06:30:16;22.90;8.90
4431;DHT22;2228;48.140;11.488;2023-07-24T06:32:46;23.00;17.80
4431;DHT22;2228;48.140;11.488;2023-07-24T06:35:13;23.10;52.90
4431;DHT22;2228;48.140;11.488;2023-07-24T06:37:40;23.40;1.00
4431;DHT22;2228;48.140;11.488;2023-07-24T06:40:08;23.80;1.00
4431;DHT22;2228;48.140;11.488;2023-07-24T06:42:37;24.20;1.00
4431;DHT22;2228;48.140;11.488;2023-07-24T06:45:06;24.30;1.00
4431;DHT22;2228;48.140;11.488;2023-07-24T06:47:33;24.50;1.00
4431;DHT22;2228;48.140;11.488;2023-07-24T06:50:02;24.70;1.00
4431;DHT22;2228;48.140;11.488;2023-07-24T06:52:30;24.70;1.00
4431;DHT22;2228;48.140;11.488;2023-07-24T06:54:57;24.90;1.00
4431;DHT22;2228;48.140;11.488;2023-07-24T06:57:24;25.00;1.00
4431;DHT22;2228;48.140;11.488;2023-07-24T06:59:51;24.90;1.00
4431;DHT22;2228;48.140;11.488;2023-07-24T07:02:18;25.10;1.00
4431;DHT22;2228;48.140;11.488;2023-07-24T07:04:45;25.40;1.00
4431;DHT22;2228;48.140;11.488;2023-07-24T07:07:13;25.90;1.00
4431;DHT22;2228;48.140;11.488;2023-07-24T07:09:40;26.10;1.00
4431;DHT22;2228;48.140;11.488;2023-07-24T07:12:08;26.30;99.90
4431;DHT22;2228;48.140;11.488;2023-07-24T07:14:34;26.60;99.90
4431;DHT22;2228;48.140;11.488;2023-07-24T07:17:01;26.60;99.90
4431;DHT22;2228;48.140;11.488;2023-07-24T07:19:28;26.30;99.90
4431;DHT22;2228;48.140;11.488;2023-07-24T07:21:56;26.00;99.90
4431;DHT22;2228;48.140;11.488;2023-07-24T07:24:25;25.70;99.90
4431;DHT22;2228;48.140;11.488;2023-07-24T07:26:52;25.40;99.90
4431;DHT22;2228;48.140;11.488;2023-07-24T07:29:19;25.00;99.90
4431;DHT22;2228;48.140;11.488;2023-07-24T07:31:46;24.10;99.90
4431;DHT22;2228;48.140;11.488;2023-07-24T07:34:13;23.60;1.00
4431;DHT22;2228;48.140;11.488;2023-07-24T07:36:39;22.70;1.00
4431;DHT22;2228;48.140;11.488;2023-07-24T07:39:06;21.20;1.00
4431;DHT22;2228;48.140;11.488;2023-07-24T07:41:36;20.20;99.90
4431;DHT22;2228;48.140;11.488;2023-07-24T07:44:04;19.60;1.00
4431;DHT22;2228;48.140;11.488;2023-07-24T07:46:32;19.20;1.00
4431;DHT22;2228;48.140;11.488;2023-07-24T07:49:02;18.90;1.00
4431;DHT22;2228;48.140;11.488;2023-07-24T07:51:32;19.20;1.00
4431;DHT22;2228;48.140;11.488;2023-07-24T07:54:00;19.20;1.00
4431;DHT22;2228;48.140;11.488;2023-07-24T07:56:28;19.20;1.00
4431;DHT22;2228;48.140;11.488;2023-07-24T07:58:56;19.20;1.00
4431;DHT22;2228;48.140;11.488;2023-07-24T08:01:23;19.70;1.00
4431;DHT22;2228;48.140;11.488;2023-07-24T08:03:50;19.20;1.00
4431;DHT22;2228;48.140;11.488;2023-07-24T08:06:17;19.30;1.00
4431;DHT22;2228;48.140;11.488;2023-07-24T08:08:44;19.30;1.00
4431;DHT22;2228;48.140;11.488;2023-07-24T08:11:12;19.40;1.00
4431;DHT22;2228;48.140;11.488;2023-07-24T08:13:39;19.50;1.00
4431;DHT22;2228;48.140;11.488;2023-07-24T08:16:13;19.70;1.00
4431;DHT22;2228;48.140;11.488;2023-07-24T08:18:44;19.80;1.00
4431;DHT22;2228;48.140;11.488;2023-07-24T08:21:11;19.90;1.00
4431;DHT22;2228;48.140;11.488;2023-07-24T08:23:39;19.90;99.90
4431;DHT22;2228;48.140;11.488;2023-07-24T08:26:06;20.00;99.90
4431;DHT22;2228;48.140;11.488;2023-07-24T08:32:27;20.00;99.90
4431;DHT22;2228;48.140;11.488;2023-07-24T08:35:18;20.20;99.90
4431;DHT22;2228;48.140;11.488;2023-07-24T08:37:48;20.50;99.90
4431;DHT22;2228;48.140;11.488;2023-07-24T08:40:27;20.50;1.00
4431;DHT22;2228;48.140;11.488;2023-07-24T08:42:56;21.00;1.00
4431;DHT22;2228;48.140;11.488;2023-07-24T08:45:30;21.60;99.90
4431;DHT22;2228;48.140;11.488;2023-07-24T08:48:00;22.00;99.90
4431;DHT22;2228;48.140;11.488;2023-07-24T08:50:29;22.50;99.90
4431;DHT22;2228;48.140;11.488;2023-07-24T16:27:10;25.10;99.90
4431;DHT22;2228;48.140;11.488;2023-07-24T16:29:37;24.40;99.90
4431;DHT22;2228;48.140;11.488;2023-07-24T16:32:05;24.10;99.90
4431;DHT22;2228;48.140;11.488;2023-07-24T16:34:32;23.70;1.00
4431;DHT22;2228;48.140;11.488;2023-07-24T16:37:02;23.00;1.00
4431;DHT22;2228;48.140;11.488;2023-07-24T16:39:28;22.30;1.00
4431;DHT22;2228;48.140;11.488;2023-07-24T16:41:55;21.90;27.80
4431;DHT22;2228;48.140;11.488;2023-07-24T16:44:24;21.40;99.90
4431;DHT22;2228;48.140;11.488;2023-07-24T16:46:51;21.10;99.90
4431;DHT22;2228;48.140;11.488;2023-07-24T16:49:18;20.90;99.90
4431;DHT22;2228;48.140;11.488;2023-07-24T16:51:45;20.70;99.90
4431;DHT22;2228;48.140;11.488;2023-07-24T16:54:12;20.60;1.00
4431;DHT22;2228;48.140;11.488;2023-07-24T16:56:40;20.50;1.00
4431;DHT22;2228;48.140;11.488;2023-07-24T16:59:08;20.50;1.00
4431;DHT22;2228;48.140;11.488;2023-07-24T17:01:36;20.30;1.00
4431;DHT22;2228;48.140;11.488;2023-07-24T17:04:04;20.30;1.00
4431;DHT22;2228;48.140;11.488;2023-07-24T17:06:31;20.30;1.00
4431;DHT22;2228;48.140;11.488;2023-07-24T17:08:58;20.30;1.00
4431;DHT22;2228;48.140;11.488;2023-07-24T17:11:25;20.40;1.00
4431;DHT22;2228;48.140;11.488;2023-07-24T17:13:54;20.30;1.00
4431;DHT22;2228;48.140;11.488;2023-07-24T17:16:21;20.20;1.00
4431;DHT22;2228;48.140;11.488;2023-07-24T17:18:50;20.20;1.00
4431;DHT22;2228;48.140;11.488;2023-07-24T17:21:20;20.00;1.00
4431;DHT22;2228;48.140;11.488;2023-07-24T17:23:47;20.00;1.00
4431;DHT22;2228;48.140;11.488;2023-07-24T17:26:14;20.00;1.00
4431;DHT22;2228;48.140;11.488;2023-07-24T17:28:41;20.00;1.00
4431;DHT22;2228;48.140;11.488;2023-07-24T17:31:09;19.90;1.00
4431;DHT22;2228;48.140;11.488;2023-07-24T17:33:36;19.90;4.70
4431;DHT22;2228;48.140;11.488;2023-07-24T17:36:05;20.00;1.00
4431;DHT22;2228;48.140;11.488;2023-07-24T17:38:32;19.70;27.70
4431;DHT22;2228;48.140;11.488;2023-07-24T17:40:59;19.70;22.70
4431;DHT22;2228;48.140;11.488;2023-07-24T17:43:27;19.60;1.00
4431;DHT22;2228;48.140;11.488;2023-07-24T17:45:53;19.60;1.00
4431;DHT22;2228;48.140;11.488;2023-07-24T17:48:21;19.40;89.90
4431;DHT22;2228;48.140;11.488;2023-07-24T17:50:48;19.40;99.90
4431;DHT22;2228;48.140;11.488;2023-07-24T17:53:17;19.50;99.90
4431;DHT22;2228;48.140;11.488;2023-07-24T17:55:43;19.60;99.90
4431;DHT22;2228;48.140;11.488;2023-07-24T17:58:10;19.80;99.90
4431;DHT22;2228;48.140;11.488;2023-07-24T18:00:37;19.80;99.90
4431;DHT22;2228;48.140;11.488;2023-07-24T18:03:06;19.80;1.00
4431;DHT22;2228;48.140;11.488;2023-07-24T18:05:33;19.80;1.00
4431;DHT22;2228;48.140;11.488;2023-07-24T18:08:00;19.60;12.40
4431;DHT22;2228;48.140;11.488;2023-07-24T18:10:29;19.80;37.90
4431;DHT22;2228;48.140;11.488;2023-07-24T18:12:57;19.60;99.90
4431;DHT22;2228;48.140;11.488;2023-07-24T18:15:24;19.60;14.60
4431;DHT22;2228;48.140;11.488;2023-07-24T18:17:51;19.60;1.00
4431;DHT22;2228;48.140;11.488;2023-07-24T18:20:18;19.60;1.00
4431;DHT22;2228;48.140;11.488;2023-07-24T18:22:45;19.50;93.20
4431;DHT22;2228;48.140;11.488;2023-07-24T18:25:12;19.50;99.90
4431;DHT22;2228;48.140;11.488;2023-07-24T18:27:40;19.40;99.90
4431;DHT22;2228;48.140;11.488;2023-07-24T18:30:07;19.40;99.90
4431;DHT22;2228;48.140;11.488;2023-07-24T18:32:34;19.40;99.90
4431;DHT22;2228;48.140;11.488;2023-07-24T18:35:02;19.40;99.90
4431;DHT22;2228;48.140;11.488;2023-07-24T18:37:29;19.40;99.90
4431;DHT22;2228;48.140;11.488;2023-07-24T18:39:55;19.30;99.90
4431;DHT22;2228;48.140;11.488;2023-07-24T18:42:23;19.20;99.90
4431;DHT22;2228;48.140;11.488;2023-07-24T18:44:51;19.20;99.90
4431;DHT22;2228;48.140;11.488;2023-07-24T18:47:18;19.20;99.90
4431;DHT22;2228;48.140;11.488;2023-07-24T18:49:45;19.30;99.90
4431;DHT22;2228;48.140;11.488;2023-07-24T18:52:12;19.50;99.90
4431;DHT22;2228;48.140;11.488;2023-07-24T18:54:39;19.20;99.90
4431;DHT22;2228;48.140;11.488;2023-07-24T18:57:06;19.20;99.90
4431;DHT22;2228;48.140;11.488;2023-07-24T18:59:33;19.30;99.90
4431;DHT22;2228;48.140;11.488;2023-07-24T19:02:03;19.20;99.90
4431;DHT22;2228;48.140;11.488;2023-07-24T19:04:30;19.30;99.90
4431;DHT22;2228;48.140;11.488;2023-07-24T19:06:57;19.30;99.90
4431;DHT22;2228;48.140;11.488;2023-07-24T19:09:27;19.20;1.00
4431;DHT22;2228;48.140;11.488;2023-07-24T19:11:55;19.30;99.90
4431;DHT22;2228;48.140;11.488;2023-07-24T19:14:22;19.40;1.00
4431;DHT22;2228;48.140;11.488;2023-07-24T19:16:50;19.30;99.90
4431;DHT22;2228;48.140;11.488;2023-07-24T19:43:38;19.10;1.00
4431;DHT22;2228;48.140;11.488;2023-07-24T19:46:05;19.10;1.00
4431;DHT22;2228;48.140;11.488;2023-07-24T19:48:33;19.10;99.90
4431;DHT22;2228;48.140;11.488;2023-07-24T19:51:00;19.30;1.00
4431;DHT22;2228;48.140;11.488;2023-07-24T19:53:28;19.00;1.00
4431;DHT22;2228;48.140;11.488;2023-07-24T19:55:56;19.10;1.00
4431;DHT22;2228;48.140;11.488;2023-07-24T19:58:23;19.10;1.00
4431;DHT22;2228;48.140;11.488;2023-07-24T20:00:52;19.30;1.00
4431;DHT22;2228;48.140;11.488;2023-07-24T20:03:20;19.20;99.90
4431;DHT22;2228;48.140;11.488;2023-07-24T20:05:51;19.10;99.90
4431;DHT22;2228;48.140;11.488;2023-07-24T20:08:20;19.00;99.90
4431;DHT22;2228;48.140;11.488;2023-07-24T20:10:47;19.00;99.90
4431;DHT22;2228;48.140;11.488;2023-07-24T20:13:14;18.90;1.00
4431;DHT22;2228;48.140;11.488;2023-07-24T20:15:41;18.80;1.00
4431;DHT22;2228;48.140;11.488;2023-07-24T20:18:09;18.80;1.00
4431;DHT22;2228;48.140;11.488;2023-07-24T20:20:37;18.90;1.00
4431;DHT22;2228;48.140;11.488;2023-07-24T20:23:04;18.90;1.00
4431;DHT22;2228;48.140;11.488;2023-07-24T20:25:31;19.20;1.00
4431;DHT22;2228;48.140;11.488;2023-07-24T20:27:58;18.90;1.00
4431;DHT22;2228;48.140;11.488;2023-07-24T20:30:25;18.80;1.00
4431;DHT22;2228;48.140;11.488;2023-07-24T20:32:52;18.90;1.00
4431;DHT22;2228;48.140;11.488;2023-07-24T20:35:20;19.00;1.00
4431;DHT22;2228;48.140;11.488;2023-07-24T20:37:47;19.00;1.00
4431;DHT22;2228;48.140;11.488;2023-07-24T20:40:15;18.90;1.00
4431;DHT22;2228;48.140;11.488;2023-07-24T20:42:43;18.70;1.00
4431;DHT22;2228;48.140;11.488;2023-07-24T20:45:10;18.70;1.00
4431;DHT22;2228;48.140;11.488;2023-07-24T20:47:37;18.70;99.90
4431;DHT22;2228;48.140;11.488;2023-07-24T20:50:05;18.70;99.90
4431;DHT22;2228;48.140;11.488;2023-07-24T20:52:34;18.70;99.90
4431;DHT22;2228;48.140;11.488;2023-07-24T20:55:01;19.20;99.90
4431;DHT22;2228;48.140;11.488;2023-07-24T20:57:28;18.60;99.90
4431;DHT22;2228;48.140;11.488;2023-07-24T20:59:55;18.60;99.90
4431;DHT22;2228;48.140;11.488;2023-07-24T21:02:22;18.50;99.90
4431;DHT22;2228;48.140;11.488;2023-07-24T21:04:50;18.60;99.90
4431;DHT22;2228;48.140;11.488;2023-07-24T21:07:20;18.60;99.90
4431;DHT22;2228;48.140;11.488;2023-07-24T21:09:50;18.40;99.90
4431;DHT22;2228;48.140;11.488;2023-07-24T21:12:17;18.40;99.90
4431;DHT22;2228;48.140;11.488;2023-07-24T21:14:44;18.40;99.90
4431;DHT22;2228;48.140;11.488;2023-07-24T21:17:11;18.40;99.90
4431;DHT22;2228;48.140;11.488;2023-07-24T21:19:38;18.40;99.90
4431;DHT22;2228;48.140;11.488;2023-07-24T21:22:08;18.40;99.90
4431;DHT22;2228;48.140;11.488;2023-07-24T21:24:36;18.40;99.90
4431;DHT22;2228;48.140;11.488;2023-07-24T21:27:07;18.40;99.90
4431;DHT22;2228;48.140;11.488;2023-07-24T21:29:40;18.60;99.90
4431;DHT22;2228;48.140;11.488;2023-07-24T21:32:07;19.00;99.90
4431;DHT22;2228;48.140;11.488;2023-07-24T21:34:36;18.40;99.90
4431;DHT22;2228;48.140;11.488;2023-07-24T21:37:06;18.30;99.90
4431;DHT22;2228;48.140;11.488;2023-07-24T21:39:40;18.30;99.90
4431;DHT22;2228;48.140;11.488;2023-07-24T21:42:09;18.70;99.90
4431;DHT22;2228;48.140;11.488;2023-07-24T21:44:36;18.30;99.90
4431;DHT22;2228;48.140;11.488;2023-07-24T21:47:04;18.30;99.90
4431;DHT22;2228;48.140;11.488;2023-07-24T21:49:31;18.30;99.90
4431;DHT22;2228;48.140;11.488;2023-07-24T21:51:58;18.30;99.90
4431;DHT22;2228;48.140;11.488;2023-07-24T21:54:27;18.40;99.90
4431;DHT22;2228;48.140;11.488;2023-07-24T21:56:54;18.40;99.90
4431;DHT22;2228;48.140;11.488;2023-07-24T21:59:23;18.40;99.90
4431;DHT22;2228;48.140;11.488;2023-07-24T22:01:50;18.40;99.90
4431;DHT22;2228;48.140;11.488;2023-07-24T22:04:17;17.90;99.90
4431;DHT22;2228;48.140;11.488;2023-07-24T22:06:46;18.40;99.90
4431;DHT22;2228;48.140;11.488;2023-07-24T22:09:13;18.40;99.90
4431;DHT22;2228;48.140;11.488;2023-07-24T22:11:40;18.30;99.90
4431;DHT22;2228;48.140;11.488;2023-07-24T22:14:07;18.30;99.90
4431;DHT22;2228;48.140;11.488;2023-07-24T22:16:35;18.40;99.90
4431;DHT22;2228;48.140;11.488;2023-07-24T22:19:02;18.40;99.90
4431;DHT22;2228;48.140;11.488;2023-07-24T22:21:29;18.30;99.90
4431;DHT22;2228;48.140;11.488;2023-07-24T22:23:56;18.60;99.00
4431;DHT22;2228;48.140;11.488;2023-07-24T22:26:23;18.60;29.80
4431;DHT22;2228;48.140;11.488;2023-07-24T22:28:50;18.30;99.90
4431;DHT22;2228;48.140;11.488;2023-07-24T22:31:17;18.40;99.90
4431;DHT22;2228;48.140;11.488;2023-07-24T22:33:45;18.40;78.80
4431;DHT22;2228;48.140;11.488;2023-07-24T22:36:13;18.40;64.60
4431;DHT22;2228;48.140;11.488;2023-07-24T22:38:40;18.40;1.00
4431;DHT22;2228;48.140;11.488;2023-07-24T22:41:10;18.40;47.80
4431;DHT22;2228;48.140;11.488;2023-07-24T22:43:39;18.20;99.90
4431;DHT22;2228;48.140;11.488;2023-07-24T22:46:06;18.30;99.90
4431;DHT22;2228;48.140;11.488;2023-07-24T22:48:33;18.30;19.70
4431;DHT22;2228;48.140;11.488;2023-07-24T22:51:01;18.30;50.60
4431;DHT22;2228;48.140;11.488;2023-07-24T22:53:28;18.60;84.60
4431;DHT22;2228;48.140;11.488;2023-07-24T22:55:55;18.20;9.90
4431;DHT22;2228;48.140;11.488;2023-07-24T22:58:23;18.20;35.50
4431;DHT22;2228;48.140;11.488;2023-07-24T23:00:50;18.20;1.00
4431;DHT22;2228;48.140;11.488;2023-07-24T23:03:17;18.20;11.10
4431;DHT22;2228;48.140;11.488;2023-07-24T23:05:44;18.00;13.00
4431;DHT22;2228;48.140;11.488;2023-07-24T23:08:13;18.10;9.10
4431;DHT22;2228;48.140;11.488;2023-07-24T23:10:40;18.10;11.70
4431;DHT22;2228;48.140;11.488;2023-07-24T23:13:06;18.20;32.10
4431;DHT22;2228;48.140;11.488;2023-07-24T23:15:33;18.10;56.70
4431;DHT22;2228;48.140;11.488;2023-07-24T23:18:00;18.00;99.90
4431;DHT22;2228;48.140;11.488;2023-07-24T23:20:28;18.10;36.40
4431;DHT22;2228;48.140;11.488;2023-07-24T23:22:55;18.60;22.20
4431;DHT22;2228;48.140;11.488;2023-07-24T23:25:23;18.50;99.90
4431;DHT22;2228;48.140;11.488;2023-07-24T23:27:50;17.90;99.90
4431;DHT22;2228;48.140;11.488;2023-07-24T23:30:17;17.90;99.90
4431;DHT22;2228;48.140;11.488;2023-07-24T23:32:44;18.00;21.10
4431;DHT22;2228;48.140;11.488;2023-07-24T23:35:11;17.90;44.20
4431;DHT22;2228;48.140;11.488;2023-07-24T23:37:38;17.90;99.90
4431;DHT22;2228;48.140;11.488;2023-07-24T23:40:06;18.40;99.90
4431;DHT22;2228;48.140;11.488;2023-07-24T23:42:35;17.80;99.90
4431;DHT22;2228;48.140;11.488;2023-07-24T23:45:02;17.80;99.90
4431;DHT22;2228;48.140;11.488;2023-07-24T23:47:29;17.90;99.90
4431;DHT22;2228;48.140;11.488;2023-07-24T23:49:58;18.00;99.90
4431;DHT22;2228;48.140;11.488;2023-07-24T23:52:25;17.90;99.90
4431;DHT22;2228;48.140;11.488;2023-07-24T23:54:53;18.00;99.90
4431;DHT22;2228;48.140;11.488;2023-07-24T23:57:20;18.20;44.40
4431;DHT22;2228;48.140;11.488;2023-07-24T23:59:48;17.90;64.50
